Time;durP1;ratioP1;P1;durP2;ratioP2;P2;SDS_P1;SDS_P2;PMS_P1;PMS_P2;Temp;Humidity;BMP_temperature;BMP_pressure;BME280_temperature;BME280_humidity;BME280_pressure;Samples;Min_cycle;Max_cycle;Signal;HPM_P1;HPM_P2
2021/06/10 00:01:43;;;;;;;;;;;;;;;;;;5050954;28;19932;-66
2021/06/10 00:04:09;;;;;;;;;;;;;;;;;;5061791;28;19925;-66
2021/06/10 00:06:36;;;;;;;;;;;;;;;;;;5056049;28;19970;-64
2021/06/10 00:09:02;;;;;;;;;;;;;;;;;;5056075;28;19932;-65
2021/06/10 00:11:29;;;;;;;;;;;;;;;;;;5058709;28;19939;-65
2021/06/10 00:13:55;;;;;;;;;;;;;;;;;;5055223;28;19970;-65
2021/06/10 00:16:22;;;;;;;;;;;;;;;;;;5061573;28;20377;-64
2021/06/10 00:18:51;;;;;;;;;;;;;;;;;;5063095;28;20396;-64
2021/06/10 00:21:17;;;;;;;;;;;;;;;;;;5059704;28;20380;-65
2021/06/10 00:23:44;;;;;;;;;;;;;;;;;;5060517;28;20361;-64
2021/06/10 00:26:10;;;;;;;;;;;;;;;;;;5058868;28;20381;-65
2021/06/10 00:28:37;;;;;;;;;;;;;;;;;;5066237;28;19969;-65
2021/06/10 00:31:03;;;;;;;;;;;;;;;;;;5060429;28;19983;-66
2021/06/10 00:33:30;;;;;;;;;;;;;;;;;;5056917;28;20392;-65
2021/06/10 00:35:56;;;;;;;;;;;;;;;;;;5064143;28;20307;-65
2021/06/10 00:38:23;;;;;;;;;;;;;;;;;;5061750;28;20381;-65
2021/06/10 00:40:49;;;;;;;;;;;;;;;;;;5061373;28;20323;-64
2021/06/10 00:43:15;;;;;;;;;;;;;;;;;;5061438;28;19932;-65
2021/06/10 00:45:42;;;;;;;;;;;;;;;;;;5054185;28;19932;-64
2021/06/10 00:48:08;;;;;;;;;;;;;;;;;;5054204;28;19931;-64
2021/06/10 00:50:35;;;;;;;;;;;;;;;;;;5059119;28;19925;-64
2021/06/10 00:53:01;;;;;;;;;;;;;;;;;;5065088;28;20180;-64
2021/06/10 00:55:28;;;;;;;;;;;;;;;;;;5064555;28;19970;-65
2021/06/10 00:57:54;;;;;;;;;;;;;;;;;;5063454;28;20015;-65
2021/06/10 01:00:20;;;;;;;;;;;;;;;;;;5062718;28;19925;-65
2021/06/10 01:02:47;;;;;;;;;;;;;;;;;;5055165;28;19936;-65
2021/06/10 01:05:13;;;;;;;;;;;;;;;;;;5060344;28;19989;-64
2021/06/10 01:07:40;;;;;;;;;;;;;;;;;;5064362;28;19924;-66
2021/06/10 01:10:06;;;;;;;;;;;;;;;;;;5054597;28;19929;-64
2021/06/10 01:12:33;;;;;;;;;;;;;;;;;;5055427;28;20002;-65
2021/06/10 01:14:59;;;;;;;;;;;;;;;;;;5056819;28;19935;-64
2021/06/10 01:17:25;;;;;;;;;;;;;;;;;;5057638;28;19931;-64
2021/06/10 01:19:52;;;;;;;;;;;;;;;;;;5054835;28;20480;-64
2021/06/10 01:22:18;;;;;;;;;;;;;;;;;;5062724;28;20296;-65
2021/06/10 01:24:45;;;;;;;;;;;;;;;;;;5054299;28;19925;-65
2021/06/10 01:27:11;;;;;;;;;;;;;;;;;;5064115;28;19929;-66
2021/06/10 01:29:38;;;;;;;;;;;;;;;;;;5057167;28;19929;-65
2021/06/10 01:32:04;;;;;;;;;;;;;;;;;;5056189;28;19924;-65
2021/06/10 01:34:31;;;;;;;;;;;;;;;;;;5059712;28;19932;-65
2021/06/10 01:36:57;;;;;;;;;;;;;;;;;;5062940;28;19929;-65
2021/06/10 01:39:24;;;;;;;;;;;;;;;;;;5057701;28;20285;-64
2021/06/10 01:41:50;;;;;;;;;;;;;;;;;;5058383;28;19924;-64
2021/06/10 01:44:17;;;;;;;;;;;;;;;;;;5057811;28;20012;-66
2021/06/10 01:46:43;;;;;;;;;;;;;;;;;;5063567;28;20285;-65
2021/06/10 01:49:11;;;;;;;;;;;;;;;;;;5058217;28;20327;-64
2021/06/10 01:51:37;;;;;;;;;;;;;;;;;;5053576;28;20015;-65
2021/06/10 01:54:04;;;;;;;;;;;;;;;;;;5053039;28;19937;-65
2021/06/10 01:56:30;;;;;;;;;;;;;;;;;;5058439;28;19924;-65
2021/06/10 01:58:57;;;;;;;;;;;;;;;;;;5054508;28;19937;-65
2021/06/10 02:01:23;;;;;;;;;;;;;;;;;;5061931;28;19924;-66
2021/06/10 02:03:50;;;;;;;;;;;;;;;;;;5054036;28;19924;-65
2021/06/10 02:06:16;;;;;;;;;;;;;;;;;;5054863;28;19984;-64
2021/06/10 02:08:43;;;;;;;;;;;;;;;;;;5058879;28;19970;-64
2021/06/10 02:11:09;;;;;;;;;;;;;;;;;;5064661;28;19969;-66
2021/06/10 02:13:36;;;;;;;;;;;;;;;;;;5060592;28;20019;-65
2021/06/10 02:16:02;;;;;;;;;;;;;;;;;;5060066;28;19977;-65
2021/06/10 02:18:29;;;;;;;;;;;;;;;;;;5059310;28;19925;-64
2021/06/10 02:20:55;;;;;;;;;;;;;;;;;;5063681;28;19924;-64
2021/06/10 02:23:22;;;;;;;;;;;;;;;;;;5061584;28;20186;-64
2021/06/10 02:25:48;;;;;;;;;;;;;;;;;;5061131;28;19924;-65
2021/06/10 02:28:15;;;;;;;;;;;;;;;;;;5055278;28;20008;-65
2021/06/10 02:30:41;;;;;;;;;;;;;;;;;;5058331;28;19925;-64
2021/06/10 02:33:08;;;;;;;;;;;;;;;;;;5059017;28;19924;-65
2021/06/10 02:35:34;;;;;;;;;;;;;;;;;;5055138;28;19924;-64
2021/06/10 02:38:01;;;;;;;;;;;;;;;;;;5064204;28;19925;-65
2021/06/10 02:40:27;;;;;;;;;;;;;;;;;;5056827;28;19925;-65
2021/06/10 02:42:54;;;;;;;;;;;;;;;;;;5053002;28;20401;-66
2021/06/10 02:45:20;;;;;;;;;;;;;;;;;;5062760;28;19928;-65
2021/06/10 02:47:47;;;;;;;;;;;;;;;;;;5061818;28;20069;-67
2021/06/10 02:50:13;;;;;;;;;;;;;;;;;;5053195;28;20403;-65
2021/06/10 02:52:40;;;;;;;;;;;;;;;;;;5054292;28;19925;-65
2021/06/10 02:55:06;;;;;;;;;;;;;;;;;;5056850;28;20443;-64
2021/06/10 02:57:33;;;;;;;;;;;;;;;;;;5060128;28;19979;-65
2021/06/10 02:59:59;;;;;;;;;;;;;;;;;;5063979;28;20357;-65
2021/06/10 03:02:25;;;;;;;;;;;;;;;;;;5058991;28;19925;-65
2021/06/10 03:04:52;;;;;;;;;;;;;;;;;;5057471;28;20384;-65
2021/06/10 03:07:18;;;;;;;;;;;;;;;;;;5054662;28;19931;-65
2021/06/10 03:09:45;;;;;;;;;;;;;;;;;;5059029;28;20254;-65
2021/06/10 03:12:11;;;;;;;;;;;;;;;;;;5080207;22;19925;-70
2021/06/10 03:14:38;;;;;;;;;;;;;;;;;;5052076;28;20024;-71
2021/06/10 03:17:04;;;;;;;;;;;;;;;;;;5045226;28;20396;-71
2021/06/10 03:19:31;;;;;;;;;;;;;;;;;;5044864;28;20388;-71
2021/06/10 03:21:57;;;;;;;;;;;;;;;;;;5057761;28;19925;-71
2021/06/10 03:24:24;;;;;;;;;;;;;;;;;;5048736;28;20329;-70
2021/06/10 03:26:50;;;;;;;;;;;;;;;;;;5049075;28;19925;-71
2021/06/10 03:29:18;;;;;;;;;;;;;;;;;;5049302;28;19929;-69
2021/06/10 03:31:44;;;;;;;;;;;;;;;;;;5051146;28;19925;-71
2021/06/10 03:34:11;;;;;;;;;;;;;;;;;;5043579;28;19928;-70
2021/06/10 03:36:37;;;;;;;;;;;;;;;;;;5047045;28;19925;-70
2021/06/10 03:39:04;;;;;;;;;;;;;;;;;;5050994;28;20040;-70
2021/06/10 03:41:30;;;;;;;;;;;;;;;;;;5049878;28;20289;-70
2021/06/10 03:43:57;;;;;;;;;;;;;;;;;;5050588;28;19929;-71
2021/06/10 03:46:23;;;;;;;;;;;;;;;;;;5046360;28;20340;-71
2021/06/10 03:48:50;;;;;;;;;;;;;;;;;;5052009;28;19932;-70
2021/06/10 03:51:16;;;;;;;;;;;;;;;;;;5050573;28;20400;-70
2021/06/10 03:53:43;;;;;;;;;;;;;;;;;;5053159;28;19925;-71
2021/06/10 03:56:09;;;;;;;;;;;;;;;;;;5049404;28;20343;-69
2021/06/10 03:58:36;;;;;;;;;;;;;;;;;;5049391;28;20392;-72
2021/06/10 04:01:02;;;;;;;;;;;;;;;;;;5054770;28;19935;-70
2021/06/10 04:03:29;;;;;;;;;;;;;;;;;;5046463;28;19929;-70
2021/06/10 04:05:56;;;;;;;;;;;;;;;;;;5042268;28;19971;-71
2021/06/10 04:08:22;;;;;;;;;;;;;;;;;;5052084;28;19925;-71
2021/06/10 04:10:49;;;;;;;;;;;;;;;;;;5053874;28;19925;-71
2021/06/10 04:13:15;;;;;;;;;;;;;;;;;;5051681;28;20024;-69
2021/06/10 04:15:42;;;;;;;;;;;;;;;;;;5053551;28;19925;-71
2021/06/10 04:18:08;;;;;;;;;;;;;;;;;;5053494;28;20818;-71
2021/06/10 04:20:35;;;;;;;;;;;;;;;;;;5048424;28;19925;-71
2021/06/10 04:23:01;;;;;;;;;;;;;;;;;;5050379;28;19931;-71
2021/06/10 04:25:27;;;;;;;;;;;;;;;;;;5049584;28;20002;-70
2021/06/10 04:27:54;;;;;;;;;;;;;;;;;;5053932;28;19977;-71
2021/06/10 04:30:20;;;;;;;;;;;;;;;;;;5049428;28;19958;-71
2021/06/10 04:32:47;;;;;;;;;;;;;;;;;;5048130;28;19925;-70
2021/06/10 04:35:13;;;;;;;;;;;;;;;;;;5052781;28;19947;-70
2021/06/10 04:37:41;;;;;;;;;;;;;;;;;;5053139;28;19925;-71
2021/06/10 04:40:07;;;;;;;;;;;;;;;;;;5053407;28;19970;-70
2021/06/10 04:42:34;;;;;;;;;;;;;;;;;;5048433;28;20053;-72
2021/06/10 04:45:00;;;;;;;;;;;;;;;;;;5050414;28;19925;-70
2021/06/10 04:47:27;;;;;;;;;;;;;;;;;;5054295;28;19925;-70
2021/06/10 04:49:53;;;;;;;;;;;;;;;;;;5049890;28;19925;-68
2021/06/10 04:52:20;;;;;;;;;;;;;;;;;;5050942;28;19925;-68
2021/06/10 04:54:46;;;;;;;;;;;;;;;;;;5045754;28;19935;-67
2021/06/10 04:57:15;;;;;;;;;;;;;;;;;;5050473;28;19925;-69
2021/06/10 04:59:42;;;;;;;;;;;;;;;;;;5046800;28;20479;-68
2021/06/10 05:02:08;;;;;;;;;;;;;;;;;;5045351;28;19925;-68
2021/06/10 05:04:35;;;;;;;;;;;;;;;;;;5050444;28;19931;-72
2021/06/10 05:07:01;;;;;;;;;;;;;;;;;;5048918;28;19947;-72
2021/06/10 05:09:28;;;;;;;;;;;;;;;;;;5045775;28;20019;-71
2021/06/10 05:11:54;;;;;;;;;;;;;;;;;;5051954;28;19948;-70
2021/06/10 05:14:21;;;;;;;;;;;;;;;;;;5049400;28;20295;-69
2021/06/10 05:16:48;;;;;;;;;;;;;;;;;;5044058;28;20289;-70
2021/06/10 05:19:14;;;;;;;;;;;;;;;;;;5050523;28;19966;-71
2021/06/10 05:21:41;;;;;;;;;;;;;;;;;;5049700;28;20297;-70
2021/06/10 05:24:09;;;;;;;;;;;;;;;;;;5047502;28;19931;-70
2021/06/10 05:26:35;;;;;;;;;;;;;;;;;;5042826;28;19929;-71
2021/06/10 05:29:02;;;;;;;;;;;;;;;;;;5054623;28;19968;-70
2021/06/10 05:31:28;;;;;;;;;;;;;;;;;;5049201;28;19925;-70
2021/06/10 05:33:54;;;;;;;;;;;;;;;;;;5046182;28;20452;-70
2021/06/10 05:36:21;;;;;;;;;;;;;;;;;;5048855;28;19936;-70
2021/06/10 05:38:47;;;;;;;;;;;;;;;;;;5044916;28;19925;-70
2021/06/10 05:41:14;;;;;;;;;;;;;;;;;;5048479;28;19924;-69
2021/06/10 05:43:40;;;;;;;;;;;;;;;;;;5045266;28;19925;-69
2021/06/10 05:46:07;;;;;;;;;;;;;;;;;;5047974;28;19925;-69
2021/06/10 05:48:33;;;;;;;;;;;;;;;;;;5045421;28;19926;-69
2021/06/10 05:51:00;;;;;;;;;;;;;;;;;;5044157;28;19925;-70
2021/06/10 05:53:26;;;;;;;;;;;;;;;;;;5043833;28;20449;-70
2021/06/10 05:55:53;;;;;;;;;;;;;;;;;;5047744;28;20340;-71
2021/06/10 05:58:19;;;;;;;;;;;;;;;;;;5047650;28;19925;-71
2021/06/10 06:00:46;;;;;;;;;;;;;;;;;;5045496;28;19928;-70
2021/06/10 06:03:13;;;;;;;;;;;;;;;;;;5047126;28;19998;-71
2021/06/10 06:05:39;;;;;;;;;;;;;;;;;;5046457;28;19954;-69
2021/06/10 06:08:05;;;;;;;;;;;;;;;;;;5047092;28;19932;-70
2021/06/10 06:10:32;;;;;;;;;;;;;;;;;;5047481;28;19925;-71
2021/06/10 06:13:00;;;;;;;;;;;;;;;;;;5042805;28;19924;-71
2021/06/10 06:15:27;;;;;;;;;;;;;;;;;;5046070;28;19925;-71
2021/06/10 06:17:54;;;;;;;;;;;;;;;;;;5043038;28;19944;-69
2021/06/10 06:20:21;;;;;;;;;;;;;;;;;;5043929;28;20304;-70
2021/06/10 06:22:47;;;;;;;;;;;;;;;;;;5043975;28;19932;-69
2021/06/10 06:25:14;;;;;;;;;;;;;;;;;;5046923;28;19931;-71
2021/06/10 06:27:40;;;;;;;;;;;;;;;;;;5046794;28;20031;-71
2021/06/10 06:30:07;;;;;;;;;;;;;;;;;;5046440;28;20061;-71
2021/06/10 06:32:35;;;;;;;;;;;;;;;;;;5045469;28;19929;-70
2021/06/10 06:35:01;;;;;;;;;;;;;;;;;;5046035;28;19932;-70
2021/06/10 06:37:27;;;;;;;;;;;;;;;;;;5045378;28;20407;-69
2021/06/10 06:39:54;;;;;;;;;;;;;;;;;;5047175;28;19978;-70
2021/06/10 06:42:20;;;;;;;;;;;;;;;;;;5044618;28;20407;-69
2021/06/10 06:44:47;;;;;;;;;;;;;;;;;;5043538;28;19933;-69
2021/06/10 06:47:13;;;;;;;;;;;;;;;;;;5042917;28;19929;-68
2021/06/10 06:49:40;;;;;;;;;;;;;;;;;;5044667;28;20293;-69
2021/06/10 06:52:06;;;;;;;;;;;;;;;;;;5044326;28;19929;-69
2021/06/10 06:54:33;;;;;;;;;;;;;;;;;;5041853;28;20381;-70
2021/06/10 06:56:59;;;;;;;;;;;;;;;;;;5044129;28;20027;-68
2021/06/10 06:59:26;;;;;;;;;;;;;;;;;;5044998;28;19933;-70
2021/06/10 07:01:52;;;;;;;;;;;;;;;;;;5039376;28;19950;-70
2021/06/10 07:04:18;;;;;;;;;;;;;;;;;;5043528;28;19933;-71
2021/06/10 07:06:47;;;;;;;;;;;;;;;;;;5046952;28;20405;-71
2021/06/10 07:09:13;;;;;;;;;;;;;;;;;;5043486;28;20043;-69
2021/06/10 07:11:40;;;;;;;;;;;;;;;;;;5044996;28;20504;-70
2021/06/10 07:14:06;;;;;;;;;;;;;;;;;;5045888;28;19936;-70
2021/06/10 07:16:33;;;;;;;;;;;;;;;;;;5045249;28;20360;-70
2021/06/10 07:18:59;;;;;;;;;;;;;;;;;;5043034;28;19940;-70
2021/06/10 07:21:26;;;;;;;;;;;;;;;;;;5049597;28;20322;-70
2021/06/10 07:23:53;;;;;;;;;;;;;;;;;;5049727;28;20423;-69
2021/06/10 07:26:19;;;;;;;;;;;;;;;;;;5050679;28;19925;-69
2021/06/10 07:28:46;;;;;;;;;;;;;;;;;;5051770;28;20381;-70
2021/06/10 07:31:12;;;;;;;;;;;;;;;;;;5049221;28;19941;-70
2021/06/10 07:33:38;;;;;;;;;;;;;;;;;;5050259;28;19925;-68
2021/06/10 07:36:05;;;;;;;;;;;;;;;;;;5054016;28;19989;-70
2021/06/10 07:38:31;;;;;;;;;;;;;;;;;;5052326;28;19924;-68
2021/06/10 07:40:58;;;;;;;;;;;;;;;;;;5053378;28;19925;-70
2021/06/10 07:43:24;;;;;;;;;;;;;;;;;;5050973;28;19925;-70
2021/06/10 07:45:50;;;;;;;;;;;;;;;;;;5053360;28;20034;-69
2021/06/10 07:48:17;;;;;;;;;;;;;;;;;;5050788;28;20384;-69
2021/06/10 07:50:44;;;;;;;;;;;;;;;;;;5053776;28;20411;-70
2021/06/10 07:53:10;;;;;;;;;;;;;;;;;;5051459;28;19978;-70
2021/06/10 07:55:37;;;;;;;;;;;;;;;;;;5049653;28;19929;-68
2021/06/10 07:58:03;;;;;;;;;;;;;;;;;;5051729;28;20524;-71
2021/06/10 08:00:30;;;;;;;;;;;;;;;;;;5051459;28;19932;-70
2021/06/10 08:02:58;;;;;;;;;;;;;;;;;;5050746;28;19929;-70
2021/06/10 08:05:25;;;;;;;;;;;;;;;;;;5052539;28;19977;-68
2021/06/10 08:07:53;;;;;;;;;;;;;;;;;;5051416;28;19925;-68
2021/06/10 08:10:20;;;;;;;;;;;;;;;;;;5051666;28;20086;-69
2021/06/10 08:12:46;;;;;;;;;;;;;;;;;;5052234;28;19929;-69
2021/06/10 08:15:12;;;;;;;;;;;;;;;;;;5049443;28;19924;-69
2021/06/10 08:17:39;;;;;;;;;;;;;;;;;;5049446;28;20377;-70
2021/06/10 08:20:06;;;;;;;;;;;;;;;;;;5053117;28;19948;-70
2021/06/10 08:22:32;;;;;;;;;;;;;;;;;;5048633;28;19932;-71
2021/06/10 08:24:59;;;;;;;;;;;;;;;;;;5052441;28;20400;-68
2021/06/10 08:27:25;;;;;;;;;;;;;;;;;;5050545;28;20007;-68
2021/06/10 08:29:52;;;;;;;;;;;;;;;;;;5050286;28;19925;-70
2021/06/10 08:32:18;;;;;;;;;;;;;;;;;;5046108;28;20317;-70
2021/06/10 08:34:45;;;;;;;;;;;;;;;;;;5048748;28;19929;-68
2021/06/10 08:37:11;;;;;;;;;;;;;;;;;;5049019;28;20344;-70
2021/06/10 08:39:38;;;;;;;;;;;;;;;;;;5047844;28;19929;-68
2021/06/10 08:42:08;;;;;;;;;;;;;;;;;;5046662;28;19932;-69
2021/06/10 08:44:35;;;;;;;;;;;;;;;;;;5047455;28;19925;-69
2021/06/10 08:47:01;;;;;;;;;;;;;;;;;;5047502;28;20296;-69
2021/06/10 08:49:28;;;;;;;;;;;;;;;;;;5045385;28;19925;-69
2021/06/10 08:51:54;;;;;;;;;;;;;;;;;;5048421;28;19925;-70
2021/06/10 08:54:21;;;;;;;;;;;;;;;;;;5046071;28;20011;-68
2021/06/10 08:56:47;;;;;;;;;;;;;;;;;;5047728;28;19924;-70
2021/06/10 08:59:14;;;;;;;;;;;;;;;;;;5049703;28;20241;-70
2021/06/10 09:01:43;;;;;;;;;;;;;;;;;;5046865;28;20340;-70
2021/06/10 09:04:10;;;;;;;;;;;;;;;;;;5045992;28;20149;-70
2021/06/10 09:06:36;;;;;;;;;;;;;;;;;;5046391;28;19929;-70
2021/06/10 09:09:03;;;;;;;;;;;;;;;;;;5049036;28;20471;-68
2021/06/10 09:11:31;;;;;;;;;;;;;;;;;;5047608;28;19932;-68
2021/06/10 09:13:57;;;;;;;;;;;;;;;;;;5078118;22;19970;-63
2021/06/10 09:16:24;;;;;;;;;;;;;;;;;;5065929;28;19985;-63
2021/06/10 09:18:50;;;;;;;;;;;;;;;;;;5065858;28;19924;-63
2021/06/10 09:21:17;;;;;;;;;;;;;;;;;;5067457;28;19931;-63
2021/06/10 09:23:43;;;;;;;;;;;;;;;;;;5053891;28;19928;-63
2021/06/10 09:26:10;;;;;;;;;;;;;;;;;;5045070;28;19925;-63
2021/06/10 09:28:38;;;;;;;;;;;;;;;;;;5046075;28;19989;-63
2021/06/10 09:31:04;;;;;;;;;;;;;;;;;;5047174;28;19931;-63
2021/06/10 09:33:31;;;;;;;;;;;;;;;;;;5045802;28;20398;-63
2021/06/10 09:35:57;;;;;;;;;;;;;;;;;;5047780;28;19929;-63
2021/06/10 09:38:24;;;;;;;;;;;;;;;;;;5046088;28;20433;-63
2021/06/10 09:40:51;;;;;;;;;;;;;;;;;;5048724;28;20401;-63
2021/06/10 09:43:18;;;;;;;;;;;;;;;;;;5050557;28;19928;-63
2021/06/10 09:45:46;;;;;;;;;;;;;;;;;;5048594;28;20348;-63
2021/06/10 09:48:12;;;;;;;;;;;;;;;;;;5050776;28;20015;-63
2021/06/10 09:50:43;;;;;;;;;;;;;;;;;;5050077;28;19931;-63
2021/06/10 09:53:09;;;;;;;;;;;;;;;;;;5047411;28;20408;-62
2021/06/10 09:55:39;;;;;;;;;;;;;;;;;;5045410;28;19936;-63
2021/06/10 09:58:05;;;;;;;;;;;;;;;;;;5045176;28;20315;-63
2021/06/10 10:00:32;;;;;;;;;;;;;;;;;;5045024;28;20306;-63
2021/06/10 10:02:58;;;;;;;;;;;;;;;;;;5046407;28;19925;-63
2021/06/10 10:05:25;;;;;;;;;;;;;;;;;;5046449;28;19929;-63
2021/06/10 10:07:52;;;;;;;;;;;;;;;;;;5046601;28;20435;-63
2021/06/10 10:10:19;;;;;;;;;;;;;;;;;;5043886;28;20255;-63
2021/06/10 10:12:47;;;;;;;;;;;;;;;;;;5044076;28;19929;-63
2021/06/10 10:15:16;;;;;;;;;;;;;;;;;;5044795;28;19935;-64
2021/06/10 10:17:43;;;;;;;;;;;;;;;;;;5046528;28;20063;-64
2021/06/10 10:20:11;;;;;;;;;;;;;;;;;;5046006;28;20300;-63
2021/06/10 10:22:38;;;;;;;;;;;;;;;;;;5044636;28;19925;-64
2021/06/10 10:25:04;;;;;;;;;;;;;;;;;;5043924;28;19925;-64
2021/06/10 10:27:31;;;;;;;;;;;;;;;;;;5045634;28;20347;-64
2021/06/10 10:29:57;;;;;;;;;;;;;;;;;;5044224;28;19931;-64
2021/06/10 10:32:24;;;;;;;;;;;;;;;;;;5045067;28;20450;-63
2021/06/10 10:34:50;;;;;;;;;;;;;;;;;;5044142;28;19929;-65
2021/06/10 10:37:17;;;;;;;;;;;;;;;;;;5044248;28;20400;-64
2021/06/10 10:39:43;;;;;;;;;;;;;;;;;;5044906;28;19925;-64
2021/06/10 10:42:10;;;;;;;;;;;;;;;;;;5042643;28;19931;-64
2021/06/10 10:44:38;;;;;;;;;;;;;;;;;;5044005;28;20007;-64
2021/06/10 10:47:06;;;;;;;;;;;;;;;;;;5045657;28;19928;-64
2021/06/10 10:49:33;;;;;;;;;;;;;;;;;;5043825;28;19932;-65
2021/06/10 10:51:59;;;;;;;;;;;;;;;;;;5044313;28;20655;-64
2021/06/10 10:54:26;;;;;;;;;;;;;;;;;;5043723;28;19979;-64
2021/06/10 10:56:52;;;;;;;;;;;;;;;;;;5044695;28;20201;-64
2021/06/10 10:59:19;;;;;;;;;;;;;;;;;;5043090;28;20387;-63
2021/06/10 11:01:45;;;;;;;;;;;;;;;;;;5044813;28;19933;-62
2021/06/10 11:04:12;;;;;;;;;;;;;;;;;;5044233;28;19925;-63
2021/06/10 11:06:38;;;;;;;;;;;;;;;;;;5043834;28;19925;-63
2021/06/10 11:09:07;;;;;;;;;;;;;;;;;;5047432;28;20441;-64
2021/06/10 11:11:33;;;;;;;;;;;;;;;;;;5045698;28;19932;-62
2021/06/10 11:14:00;;;;;;;;;;;;;;;;;;5042805;28;19932;-62
2021/06/10 11:16:26;;;;;;;;;;;;;;;;;;5044461;28;19936;-64
2021/06/10 11:18:53;;;;;;;;;;;;;;;;;;5046354;28;19975;-63
2021/06/10 11:21:19;;;;;;;;;;;;;;;;;;5044987;28;19928;-63
2021/06/10 11:23:46;;;;;;;;;;;;;;;;;;5046517;28;20012;-64
2021/06/10 11:26:12;;;;;;;;;;;;;;;;;;5046656;28;19925;-64
2021/06/10 11:28:39;;;;;;;;;;;;;;;;;;5045219;28;19990;-63
2021/06/10 11:31:05;;;;;;;;;;;;;;;;;;5046166;28;19928;-64
2021/06/10 11:33:31;;;;;;;;;;;;;;;;;;5044889;28;19932;-63
2021/06/10 11:35:58;;;;;;;;;;;;;;;;;;5046973;28;19976;-63
2021/06/10 11:38:24;;;;;;;;;;;;;;;;;;5045771;28;19939;-64
2021/06/10 11:40:51;;;;;;;;;;;;;;;;;;5043799;28;19976;-64
2021/06/10 11:43:17;;;;;;;;;;;;;;;;;;5044978;28;19986;-63
2021/06/10 11:45:45;;;;;;;;;;;;;;;;;;5045570;28;19925;-64
2021/06/10 11:48:12;;;;;;;;;;;;;;;;;;5044011;28;20020;-63
2021/06/10 11:50:38;;;;;;;;;;;;;;;;;;5044571;28;19935;-63
2021/06/10 11:53:06;;;;;;;;;;;;;;;;;;5044970;28;20027;-63
2021/06/10 11:55:32;;;;;;;;;;;;;;;;;;5043133;28;19925;-64
2021/06/10 11:57:59;;;;;;;;;;;;;;;;;;5043743;28;20344;-64
2021/06/10 12:00:27;;;;;;;;;;;;;;;;;;5043789;28;20496;-64
2021/06/10 12:02:53;;;;;;;;;;;;;;;;;;5042002;28;19947;-64
2021/06/10 12:05:20;;;;;;;;;;;;;;;;;;5044777;28;19924;-64
2021/06/10 12:07:47;;;;;;;;;;;;;;;;;;5047196;28;19936;-64
2021/06/10 12:10:14;;;;;;;;;;;;;;;;;;5046724;28;19932;-63
2021/06/10 12:12:41;;;;;;;;;;;;;;;;;;5047446;28;19969;-64
2021/06/10 12:15:09;;;;;;;;;;;;;;;;;;5045642;28;20387;-63
2021/06/10 12:17:35;;;;;;;;;;;;;;;;;;5048251;28;19994;-63
2021/06/10 12:20:02;;;;;;;;;;;;;;;;;;5047854;28;19976;-64
2021/06/10 12:22:28;;;;;;;;;;;;;;;;;;5046951;28;19925;-64
2021/06/10 12:24:55;;;;;;;;;;;;;;;;;;5046874;28;20019;-63
2021/06/10 12:27:22;;;;;;;;;;;;;;;;;;5046762;28;19939;-64
2021/06/10 12:29:48;;;;;;;;;;;;;;;;;;5046978;28;19939;-64
2021/06/10 12:32:15;;;;;;;;;;;;;;;;;;5048746;28;20019;-63
2021/06/10 12:34:41;;;;;;;;;;;;;;;;;;5046820;28;20373;-64
2021/06/10 12:37:08;;;;;;;;;;;;;;;;;;5047765;28;19983;-63
2021/06/10 12:39:34;;;;;;;;;;;;;;;;;;5045417;28;20282;-63
2021/06/10 12:42:01;;;;;;;;;;;;;;;;;;5047595;28;20235;-62
2021/06/10 12:44:27;;;;;;;;;;;;;;;;;;5049165;28;19947;-64
2021/06/10 12:46:54;;;;;;;;;;;;;;;;;;5045959;28;19925;-65
2021/06/10 12:49:22;;;;;;;;;;;;;;;;;;5046907;28;19935;-64
2021/06/10 12:51:48;;;;;;;;;;;;;;;;;;5047225;28;19935;-64
2021/06/10 12:54:15;;;;;;;;;;;;;;;;;;5048544;28;20266;-64
2021/06/10 12:56:41;;;;;;;;;;;;;;;;;;5047693;28;19925;-64
2021/06/10 12:59:08;;;;;;;;;;;;;;;;;;5046230;28;19931;-64
2021/06/10 13:01:34;;;;;;;;;;;;;;;;;;5047689;28;19931;-64
2021/06/10 13:04:01;;;;;;;;;;;;;;;;;;5046430;28;19956;-63
2021/06/10 13:06:28;;;;;;;;;;;;;;;;;;5048598;28;19961;-63
2021/06/10 13:08:55;;;;;;;;;;;;;;;;;;5047212;28;19933;-63
2021/06/10 13:11:21;;;;;;;;;;;;;;;;;;5046204;28;19935;-64
2021/06/10 13:13:49;;;;;;;;;;;;;;;;;;5047835;28;19932;-63
2021/06/10 13:16:16;;;;;;;;;;;;;;;;;;5049431;28;19939;-63
2021/06/10 13:18:42;;;;;;;;;;;;;;;;;;5047844;28;19933;-65
2021/06/10 13:21:09;;;;;;;;;;;;;;;;;;5044361;28;19924;-63
2021/06/10 13:23:35;;;;;;;;;;;;;;;;;;5047182;28;20417;-63
2021/06/10 13:26:02;;;;;;;;;;;;;;;;;;5049085;28;19931;-64
2021/06/10 13:28:28;;;;;;;;;;;;;;;;;;5045758;28;20031;-63
2021/06/10 13:30:55;;;;;;;;;;;;;;;;;;5047523;28;20323;-63
2021/06/10 13:33:23;;;;;;;;;;;;;;;;;;5047065;28;19925;-63
2021/06/10 13:35:51;;;;;;;;;;;;;;;;;;5046661;28;19925;-64
2021/06/10 13:38:17;;;;;;;;;;;;;;;;;;5045166;28;19929;-63
2021/06/10 13:40:44;;;;;;;;;;;;;;;;;;5045856;28;20315;-63
2021/06/10 13:43:10;;;;;;;;;;;;;;;;;;5048503;28;20019;-64
2021/06/10 13:45:37;;;;;;;;;;;;;;;;;;5046637;28;19936;-64
2021/06/10 13:48:03;;;;;;;;;;;;;;;;;;5048468;28;20004;-63
2021/06/10 13:50:30;;;;;;;;;;;;;;;;;;5039431;28;20024;-63
2021/06/10 13:52:57;;;;;;;;;;;;;;;;;;5045640;28;20011;-63
2021/06/10 13:55:24;;;;;;;;;;;;;;;;;;5046758;28;19929;-63
2021/06/10 13:57:50;;;;;;;;;;;;;;;;;;5046698;28;20423;-63
2021/06/10 14:00:17;;;;;;;;;;;;;;;;;;5043916;28;20732;-63
2021/06/10 14:02:43;;;;;;;;;;;;;;;;;;5046408;28;19971;-63
2021/06/10 14:05:10;;;;;;;;;;;;;;;;;;5049290;28;19986;-63
2021/06/10 14:07:36;;;;;;;;;;;;;;;;;;5046513;28;20004;-63
2021/06/10 14:10:03;;;;;;;;;;;;;;;;;;5045985;28;20019;-62
2021/06/10 14:12:29;;;;;;;;;;;;;;;;;;5047986;28;21179;-62
2021/06/10 14:14:56;;;;;;;;;;;;;;;;;;5046019;28;19929;-62
2021/06/10 14:17:22;;;;;;;;;;;;;;;;;;5043702;28;20300;-63
2021/06/10 14:19:49;;;;;;;;;;;;;;;;;;5043553;28;19931;-62
2021/06/10 14:22:16;;;;;;;;;;;;;;;;;;5046689;28;19990;-62
2021/06/10 14:24:42;;;;;;;;;;;;;;;;;;5045231;28;19975;-62
2021/06/10 14:27:10;;;;;;;;;;;;;;;;;;5044543;28;19939;-62
2021/06/10 14:29:43;;;;;;;;;;;;;;;;;;5039980;28;19925;-63
2021/06/10 14:32:20;;;;;;;;;;;;;;;;;;5044455;28;19924;-63
2021/06/10 14:34:46;;;;;;;;;;;;;;;;;;5043846;28;19972;-63
2021/06/10 14:37:13;;;;;;;;;;;;;;;;;;5044508;28;20002;-63
2021/06/10 14:39:39;;;;;;;;;;;;;;;;;;5044319;28;20304;-64
2021/06/10 14:42:06;;;;;;;;;;;;;;;;;;5046299;28;19925;-65
2021/06/10 14:44:32;;;;;;;;;;;;;;;;;;5046718;28;20012;-63
2021/06/10 14:46:59;;;;;;;;;;;;;;;;;;5047426;28;19970;-63
2021/06/10 14:49:25;;;;;;;;;;;;;;;;;;5045533;28;19935;-63
2021/06/10 14:51:52;;;;;;;;;;;;;;;;;;5045436;28;19925;-62
2021/06/10 14:54:18;;;;;;;;;;;;;;;;;;5046469;28;20290;-64
2021/06/10 14:56:45;;;;;;;;;;;;;;;;;;5048231;28;19929;-62
2021/06/10 14:59:11;;;;;;;;;;;;;;;;;;5043414;28;19935;-62
2021/06/10 15:01:38;;;;;;;;;;;;;;;;;;5045570;28;19970;-64
2021/06/10 15:04:04;;;;;;;;;;;;;;;;;;5044023;28;20019;-65
2021/06/10 15:06:31;;;;;;;;;;;;;;;;;;5042353;28;19932;-65
2021/06/10 15:08:57;;;;;;;;;;;;;;;;;;5043683;28;20415;-65
2021/06/10 15:11:24;;;;;;;;;;;;;;;;;;5043411;28;20027;-65
2021/06/10 15:13:50;;;;;;;;;;;;;;;;;;5044631;28;19925;-65
2021/06/10 15:16:17;;;;;;;;;;;;;;;;;;5044195;28;19931;-67
2021/06/10 15:18:44;;;;;;;;;;;;;;;;;;5055770;28;20408;-65
2021/06/10 15:21:13;;;;;;;;;;;;;;;;;;5054264;28;19988;-66
2021/06/10 15:23:40;;;;;;;;;;;;;;;;;;5051836;28;19955;-65
2021/06/10 15:26:07;;;;;;;;;;;;;;;;;;5045925;28;19988;-67
2021/06/10 15:28:34;;;;;;;;;;;;;;;;;;5044522;28;20416;-63
2021/06/10 15:31:00;;;;;;;;;;;;;;;;;;5043729;28;19925;-66
2021/06/10 15:33:27;;;;;;;;;;;;;;;;;;5046089;28;19932;-65
2021/06/10 15:35:53;;;;;;;;;;;;;;;;;;5043627;28;19925;-65
2021/06/10 15:38:20;;;;;;;;;;;;;;;;;;5045761;28;20368;-65
2021/06/10 15:40:46;;;;;;;;;;;;;;;;;;5044483;28;19931;-65
2021/06/10 15:43:13;;;;;;;;;;;;;;;;;;5048863;28;19954;-64
2021/06/10 15:45:39;;;;;;;;;;;;;;;;;;5050151;28;19944;-65
2021/06/10 15:48:06;;;;;;;;;;;;;;;;;;5048363;28;19930;-64
2021/06/10 15:50:32;;;;;;;;;;;;;;;;;;5049035;28;19931;-66
2021/06/10 15:53:00;;;;;;;;;;;;;;;;;;5049844;28;20270;-65
2021/06/10 15:55:27;;;;;;;;;;;;;;;;;;5050598;28;19928;-66
2021/06/10 15:57:53;;;;;;;;;;;;;;;;;;5045768;28;20023;-65
2021/06/10 16:00:20;;;;;;;;;;;;;;;;;;5046639;28;19929;-65
2021/06/10 16:02:46;;;;;;;;;;;;;;;;;;5047355;28;19960;-66
2021/06/10 16:05:15;;;;;;;;;;;;;;;;;;5046188;28;19983;-63
2021/06/10 16:07:42;;;;;;;;;;;;;;;;;;5048236;28;19962;-65
2021/06/10 16:10:08;;;;;;;;;;;;;;;;;;5050247;28;19932;-64
2021/06/10 16:12:35;;;;;;;;;;;;;;;;;;5047396;28;19943;-65
2021/06/10 16:15:01;;;;;;;;;;;;;;;;;;5045582;28;19932;-65
2021/06/10 16:17:28;;;;;;;;;;;;;;;;;;5047377;28;19925;-65
2021/06/10 16:19:54;;;;;;;;;;;;;;;;;;5049444;28;19925;-66
2021/06/10 16:22:21;;;;;;;;;;;;;;;;;;5045469;28;19933;-65
2021/06/10 16:24:47;;;;;;;;;;;;;;;;;;5047127;28;19925;-66
2021/06/10 16:27:14;;;;;;;;;;;;;;;;;;5048027;28;20397;-67
2021/06/10 16:29:40;;;;;;;;;;;;;;;;;;5045806;28;19925;-66
2021/06/10 16:32:08;;;;;;;;;;;;;;;;;;5046673;28;19925;-65
2021/06/10 16:34:34;;;;;;;;;;;;;;;;;;5046021;28;20096;-66
2021/06/10 16:37:01;;;;;;;;;;;;;;;;;;5047404;28;19936;-65
2021/06/10 16:39:27;;;;;;;;;;;;;;;;;;5049481;28;19929;-65
2021/06/10 16:41:54;;;;;;;;;;;;;;;;;;5046620;28;19924;-66